Hlavní strana
METAR-TAF:

METAR-TAF

Letiště :

Svolvær, Norsko

zeměpisná šířka: 68-15N, zeměpisná délka: 014-40E, výška: 0 m

Aktuální stav počasí

Zpráva byla vytvořena před 1 hodinou a 13 minutami, v 12:50 UTC
Severní vítr 13 kt
Teplota -1°C
Vlhkost vzduchu 50%
Tlak 995 hPa
Viditelnost 10 km a více
Skoro jasno ve výšce 3500 ft
Oblačno až skoro zataženo ve výšce 6000 ft

METAR: ENSH 291250Z 35013KT 9999 FEW035 BKN060 M01/M10 Q0995 RMK WIND 150FT 34016KT

Čas: 15:03 (14:03 UTC)

Předpověď počasí

Zpráva byla vytvořena před 3 hodinami a 3 minutami, v 11:00 UTC
Předpověď platná od 29 v 12 UTC do 29 v 15 UTC
Severní vítr 12 kt
Viditelnost 10 km a více
Skoro jasno ve výšce 1500 ft
Polojasno ve výšce 3500 ft
Dočasný
od 29 v 12 UTC do 29 v 15 UTC
Viditelnost: 1500 m
ve výšce 800 ft
sněhové přeháňky

TAF: ENSH 291100Z 2912/2915 36012KT 9999 FEW015 SCT035 TEMPO 2912/2915 1500 SHSN VV008

Stav a předpovědi počasí z více než 4 000 letišť (zprávy METAR a TAF).

Červené a žluté tečky na mapě představují dostupné meteorologické stanice.

Když kurzor umístíte na tečku, zobrazí se název stanice.

Pak kliknutím zobrazíte stav a předpověď počasí.

Chcete-li změnit mapu, kliknutím na zelené tlačítko se znaménkem +mapu přiblížíte, kliknutím na zelené tlačítko se znaménkem – mapu oddálíte a kliknutím na zelené šipky přejdete na sousední mapy.


METAR-TAF: